sensor_id;sensor_type;location;lat;lon;timestamp;pressure;altitude;pressure_sealevel;temperature;humidity
73106;BME280;61559;50.476;15.588;2023-07-20T00:00:38;97069.21;;;15.65;74.47
73106;BME280;61559;50.476;15.588;2023-07-20T00:03:29;97071.17;;;15.63;74.88
73106;BME280;61559;50.476;15.588;2023-07-20T00:06:03;97071.69;;;15.62;74.99
73106;BME280;61559;50.476;15.588;2023-07-20T00:08:35;97068.87;;;15.62;74.96
73106;BME280;61559;50.476;15.588;2023-07-20T00:11:06;97064.69;;;15.60;75.38
73106;BME280;61559;50.476;15.588;2023-07-20T00:13:37;97064.10;;;15.55;75.38
73106;BME280;61559;50.476;15.588;2023-07-20T00:16:08;97058.77;;;15.51;76.03
73106;BME280;61559;50.476;15.588;2023-07-20T00:18:39;97051.95;;;15.47;76.37
73106;BME280;61559;50.476;15.588;2023-07-20T00:21:10;97052.02;;;15.47;76.15
73106;BME280;61559;50.476;15.588;2023-07-20T00:23:41;97050.05;;;15.44;76.62
73106;BME280;61559;50.476;15.588;2023-07-20T00:26:13;97044.70;;;15.39;77.30
73106;BME280;61559;50.476;15.588;2023-07-20T00:28:44;97048.63;;;15.33;77.70
73106;BME280;61559;50.476;15.588;2023-07-20T00:31:15;97057.88;;;15.27;78.57
73106;BME280;61559;50.476;15.588;2023-07-20T00:33:47;97054.41;;;15.19;78.66
73106;BME280;61559;50.476;15.588;2023-07-20T00:36:18;97062.03;;;15.18;78.46
73106;BME280;61559;50.476;15.588;2023-07-20T00:38:49;97064.20;;;15.20;78.75
73106;BME280;61559;50.476;15.588;2023-07-20T00:41:20;97060.06;;;15.20;78.94
73106;BME280;61559;50.476;15.588;2023-07-20T00:43:52;97066.02;;;15.21;78.93
73106;BME280;61559;50.476;15.588;2023-07-20T00:46:24;97069.62;;;15.20;78.95
73106;BME280;61559;50.476;15.588;2023-07-20T00:48:56;97065.57;;;15.17;79.01
73106;BME280;61559;50.476;15.588;2023-07-20T00:51:28;97066.84;;;15.14;79.05
73106;BME280;61559;50.476;15.588;2023-07-20T00:53:59;97075.55;;;15.11;79.09
73106;BME280;61559;50.476;15.588;2023-07-20T00:56:32;97085.95;;;15.08;79.16
73106;BME280;61559;50.476;15.588;2023-07-20T00:59:03;97085.89;;;15.04;79.34
73106;BME280;61559;50.476;15.588;2023-07-20T01:01:35;97089.48;;;15.02;79.37
73106;BME280;61559;50.476;15.588;2023-07-20T01:04:06;97089.14;;;15.00;79.41
73106;BME280;61559;50.476;15.588;2023-07-20T01:06:47;97093.33;;;14.98;79.43
73106;BME280;61559;50.476;15.588;2023-07-20T01:09:23;97096.33;;;14.95;79.58
73106;BME280;61559;50.476;15.588;2023-07-20T01:11:59;97092.94;;;14.92;79.44
73106;BME280;61559;50.476;15.588;2023-07-20T01:14:33;97094.27;;;14.89;79.38
73106;BME280;61559;50.476;15.588;2023-07-20T01:17:05;97090.13;;;14.85;79.44
73106;BME280;61559;50.476;15.588;2023-07-20T01:19:36;97089.32;;;14.81;79.55
73106;BME280;61559;50.476;15.588;2023-07-20T01:22:19;97090.14;;;14.77;79.60
73106;BME280;61559;50.476;15.588;2023-07-20T01:25:01;97095.50;;;14.73;79.53
73106;BME280;61559;50.476;15.588;2023-07-20T01:28:06;97085.73;;;14.69;79.49
73106;BME280;61559;50.476;15.588;2023-07-20T01:30:55;97092.23;;;14.65;79.51
73106;BME280;61559;50.476;15.588;2023-07-20T01:33:26;97092.11;;;14.62;79.40
73106;BME280;61559;50.476;15.588;2023-07-20T01:36:00;97099.42;;;14.58;79.44
73106;BME280;61559;50.476;15.588;2023-07-20T01:38:32;97103.36;;;14.54;79.51
73106;BME280;61559;50.476;15.588;2023-07-20T01:41:03;97102.54;;;14.50;79.71
73106;BME280;61559;50.476;15.588;2023-07-20T01:43:35;97111.58;;;14.47;79.80
73106;BME280;61559;50.476;15.588;2023-07-20T01:46:06;97115.80;;;14.43;79.80
73106;BME280;61559;50.476;15.588;2023-07-20T01:48:37;97119.48;;;14.39;79.91
73106;BME280;61559;50.476;15.588;2023-07-20T01:51:08;97124.36;;;14.35;79.83
73106;BME280;61559;50.476;15.588;2023-07-20T01:53:39;97129.02;;;14.31;80.10
73106;BME280;61559;50.476;15.588;2023-07-20T01:56:11;97129.16;;;14.28;79.76
73106;BME280;61559;50.476;15.588;2023-07-20T01:58:42;97132.27;;;14.24;79.76
73106;BME280;61559;50.476;15.588;2023-07-20T02:01:13;97135.70;;;14.22;79.89
73106;BME280;61559;50.476;15.588;2023-07-20T02:03:45;97137.09;;;14.19;79.98
73106;BME280;61559;50.476;15.588;2023-07-20T02:06:16;97135.25;;;14.15;80.06
73106;BME280;61559;50.476;15.588;2023-07-20T02:08:47;97132.85;;;14.14;80.21
73106;BME280;61559;50.476;15.588;2023-07-20T02:11:18;97131.66;;;14.10;80.34
73106;BME280;61559;50.476;15.588;2023-07-20T02:13:49;97123.52;;;14.06;80.20
73106;BME280;61559;50.476;15.588;2023-07-20T02:16:21;97127.69;;;14.01;80.11
73106;BME280;61559;50.476;15.588;2023-07-20T02:18:54;97126.78;;;13.96;80.32
73106;BME280;61559;50.476;15.588;2023-07-20T02:21:26;97128.03;;;13.93;80.19
73106;BME280;61559;50.476;15.588;2023-07-20T02:23:57;97128.11;;;13.90;80.20
73106;BME280;61559;50.476;15.588;2023-07-20T02:26:30;97122.00;;;13.87;80.24
73106;BME280;61559;50.476;15.588;2023-07-20T02:29:00;97115.18;;;13.83;80.17
73106;BME280;61559;50.476;15.588;2023-07-20T02:31:34;97116.19;;;13.74;80.29
73106;BME280;61559;50.476;15.588;2023-07-20T02:34:07;97119.32;;;13.63;80.74
73106;BME280;61559;50.476;15.588;2023-07-20T02:36:39;97118.90;;;13.52;80.80
73106;BME280;61559;50.476;15.588;2023-07-20T02:39:12;97120.56;;;13.44;80.78
73106;BME280;61559;50.476;15.588;2023-07-20T02:41:44;97124.33;;;13.38;80.81
73106;BME280;61559;50.476;15.588;2023-07-20T02:44:15;97119.14;;;13.34;81.12
73106;BME280;61559;50.476;15.588;2023-07-20T02:46:47;97114.19;;;13.30;81.09
73106;BME280;61559;50.476;15.588;2023-07-20T02:49:20;97115.66;;;13.28;81.10
73106;BME280;61559;50.476;15.588;2023-07-20T02:51:51;97117.00;;;13.25;81.11
73106;BME280;61559;50.476;15.588;2023-07-20T02:54:22;97117.27;;;13.21;80.85
73106;BME280;61559;50.476;15.588;2023-07-20T02:56:53;97114.52;;;13.17;80.71
73106;BME280;61559;50.476;15.588;2023-07-20T02:59:24;97106.53;;;13.15;80.73
73106;BME280;61559;50.476;15.588;2023-07-20T03:01:56;97112.77;;;13.10;80.87
73106;BME280;61559;50.476;15.588;2023-07-20T03:04:28;97118.29;;;13.06;81.03
73106;BME280;61559;50.476;15.588;2023-07-20T03:07:00;97121.80;;;13.05;81.25
73106;BME280;61559;50.476;15.588;2023-07-20T03:09:31;97124.54;;;13.02;80.98
73106;BME280;61559;50.476;15.588;2023-07-20T03:12:03;97127.80;;;12.99;80.69
73106;BME280;61559;50.476;15.588;2023-07-20T03:14:34;97133.19;;;12.96;80.56
73106;BME280;61559;50.476;15.588;2023-07-20T03:17:06;97134.23;;;12.94;80.64
73106;BME280;61559;50.476;15.588;2023-07-20T03:19:38;97129.75;;;12.92;80.64
73106;BME280;61559;50.476;15.588;2023-07-20T03:22:09;97130.42;;;12.89;80.88
73106;BME280;61559;50.476;15.588;2023-07-20T03:24:40;97133.20;;;12.80;81.45
73106;BME280;61559;50.476;15.588;2023-07-20T03:27:11;97135.04;;;12.74;81.62
73106;BME280;61559;50.476;15.588;2023-07-20T03:29:42;97144.77;;;12.71;81.60
73106;BME280;61559;50.476;15.588;2023-07-20T03:32:13;97139.45;;;12.71;81.83
73106;BME280;61559;50.476;15.588;2023-07-20T03:34:44;97139.26;;;12.72;81.96
73106;BME280;61559;50.476;15.588;2023-07-20T03:37:18;97135.21;;;12.72;81.82
73106;BME280;61559;50.476;15.588;2023-07-20T03:39:50;97137.04;;;12.74;82.07
73106;BME280;61559;50.476;15.588;2023-07-20T03:42:21;97135.66;;;12.75;81.91
73106;BME280;61559;50.476;15.588;2023-07-20T03:44:52;97137.13;;;12.78;81.80
73106;BME280;61559;50.476;15.588;2023-07-20T03:47:23;97143.50;;;12.78;81.80
73106;BME280;61559;50.476;15.588;2023-07-20T03:49:55;97145.62;;;12.80;81.73
73106;BME280;61559;50.476;15.588;2023-07-20T03:52:26;97153.57;;;12.82;81.83
73106;BME280;61559;50.476;15.588;2023-07-20T03:54:57;97152.00;;;12.84;81.74
73106;BME280;61559;50.476;15.588;2023-07-20T03:57:28;97155.77;;;12.84;81.66
73106;BME280;61559;50.476;15.588;2023-07-20T04:00:02;97152.33;;;12.83;81.74
73106;BME280;61559;50.476;15.588;2023-07-20T04:02:36;97147.68;;;12.80;81.93
73106;BME280;61559;50.476;15.588;2023-07-20T04:05:08;97145.61;;;12.80;81.81
73106;BME280;61559;50.476;15.588;2023-07-20T04:07:39;97151.25;;;12.81;81.70
73106;BME280;61559;50.476;15.588;2023-07-20T04:10:11;97155.98;;;12.78;81.54
73106;BME280;61559;50.476;15.588;2023-07-20T04:12:42;97161.05;;;12.75;81.69
73106;BME280;61559;50.476;15.588;2023-07-20T04:15:13;97164.97;;;12.73;81.93
73106;BME280;61559;50.476;15.588;2023-07-20T04:17:46;97174.68;;;12.74;81.91
73106;BME280;61559;50.476;15.588;2023-07-20T04:20:17;97168.98;;;12.76;82.03
73106;BME280;61559;50.476;15.588;2023-07-20T04:22:48;97168.45;;;12.78;81.73
73106;BME280;61559;50.476;15.588;2023-07-20T04:25:20;97169.63;;;12.78;81.84
73106;BME280;61559;50.476;15.588;2023-07-20T04:27:51;97171.15;;;12.74;82.33
73106;BME280;61559;50.476;15.588;2023-07-20T04:30:23;97182.52;;;12.72;82.51
73106;BME280;61559;50.476;15.588;2023-07-20T04:32:54;97184.73;;;12.72;82.53
73106;BME280;61559;50.476;15.588;2023-07-20T04:35:51;97183.42;;;12.75;82.82
73106;BME280;61559;50.476;15.588;2023-07-20T04:38:24;97177.46;;;12.81;82.86
73106;BME280;61559;50.476;15.588;2023-07-20T04:40:55;97181.85;;;12.88;82.93
73106;BME280;61559;50.476;15.588;2023-07-20T04:43:27;97187.01;;;12.98;83.10
73106;BME280;61559;50.476;15.588;2023-07-20T04:46:00;97185.70;;;13.08;83.40
73106;BME280;61559;50.476;15.588;2023-07-20T04:48:31;97190.55;;;13.18;83.49
73106;BME280;61559;50.476;15.588;2023-07-20T04:51:03;97191.02;;;13.27;83.45
73106;BME280;61559;50.476;15.588;2023-07-20T04:53:34;97195.55;;;13.34;83.43
73106;BME280;61559;50.476;15.588;2023-07-20T04:56:05;97189.80;;;13.40;83.17
73106;BME280;61559;50.476;15.588;2023-07-20T04:58:36;97184.19;;;13.52;82.99
73106;BME280;61559;50.476;15.588;2023-07-20T05:01:07;97180.34;;;13.67;82.75
73106;BME280;61559;50.476;15.588;2023-07-20T05:03:38;97180.95;;;13.81;82.60
73106;BME280;61559;50.476;15.588;2023-07-20T05:06:10;97182.44;;;14.14;82.24
73106;BME280;61559;50.476;15.588;2023-07-20T05:08:41;97188.77;;;14.53;81.73
73106;BME280;61559;50.476;15.588;2023-07-20T05:11:12;97191.10;;;14.92;81.04
73106;BME280;61559;50.476;15.588;2023-07-20T05:13:46;97195.54;;;15.36;80.41
73106;BME280;61559;50.476;15.588;2023-07-20T05:16:17;97194.28;;;15.75;79.90
73106;BME280;61559;50.476;15.588;2023-07-20T05:18:48;97192.40;;;16.17;79.03
73106;BME280;61559;50.476;15.588;2023-07-20T05:21:20;97191.77;;;16.54;77.79
73106;BME280;61559;50.476;15.588;2023-07-20T05:23:51;97192.55;;;16.86;76.80
73106;BME280;61559;50.476;15.588;2023-07-20T05:26:21;97195.25;;;17.15;76.07
73106;BME280;61559;50.476;15.588;2023-07-20T05:28:53;97193.77;;;17.45;75.14
73106;BME280;61559;50.476;15.588;2023-07-20T05:31:24;97196.60;;;17.63;75.14
73106;BME280;61559;50.476;15.588;2023-07-20T05:33:56;97196.55;;;17.64;75.44
73106;BME280;61559;50.476;15.588;2023-07-20T05:36:27;97200.69;;;17.69;75.34
73106;BME280;61559;50.476;15.588;2023-07-20T05:38:58;97199.45;;;17.72;75.09
73106;BME280;61559;50.476;15.588;2023-07-20T05:41:29;97201.21;;;17.63;74.19
73106;BME280;61559;50.476;15.588;2023-07-20T05:44:00;97205.93;;;17.51;74.48
73106;BME280;61559;50.476;15.588;2023-07-20T05:46:31;97203.25;;;17.43;74.37
73106;BME280;61559;50.476;15.588;2023-07-20T05:49:19;97209.70;;;17.31;73.75
73106;BME280;61559;50.476;15.588;2023-07-20T05:51:50;97205.60;;;17.15;73.53
73106;BME280;61559;50.476;15.588;2023-07-20T05:54:22;97198.67;;;17.01;73.87
73106;BME280;61559;50.476;15.588;2023-07-20T05:56:53;97202.17;;;16.95;74.04
73106;BME280;61559;50.476;15.588;2023-07-20T05:59:24;97204.09;;;16.93;74.23
73106;BME280;61559;50.476;15.588;2023-07-20T06:01:55;97209.17;;;16.90;73.63
73106;BME280;61559;50.476;15.588;2023-07-20T06:04:27;97213.42;;;16.91;73.65
73106;BME280;61559;50.476;15.588;2023-07-20T06:06:59;97211.57;;;16.91;73.82
73106;BME280;61559;50.476;15.588;2023-07-20T06:09:30;97212.35;;;16.95;74.16
73106;BME280;61559;50.476;15.588;2023-07-20T06:12:01;97213.52;;;16.99;74.14
73106;BME280;61559;50.476;15.588;2023-07-20T06:14:32;97214.70;;;16.98;74.01
73106;BME280;61559;50.476;15.588;2023-07-20T06:17:04;97218.46;;;16.97;74.18
73106;BME280;61559;50.476;15.588;2023-07-20T06:19:35;97214.92;;;16.98;73.37
73106;BME280;61559;50.476;15.588;2023-07-20T06:22:06;97217.61;;;16.99;72.75
73106;BME280;61559;50.476;15.588;2023-07-20T06:24:37;97216.48;;;17.03;72.68
73106;BME280;61559;50.476;15.588;2023-07-20T06:27:08;97218.02;;;17.09;72.27
73106;BME280;61559;50.476;15.588;2023-07-20T06:29:39;97217.42;;;17.17;72.04
73106;BME280;61559;50.476;15.588;2023-07-20T06:32:11;97220.05;;;17.24;71.32
73106;BME280;61559;50.476;15.588;2023-07-20T06:34:43;97223.98;;;17.30;70.11
73106;BME280;61559;50.476;15.588;2023-07-20T06:37:15;97217.02;;;17.37;70.06
73106;BME280;61559;50.476;15.588;2023-07-20T06:39:46;97219.84;;;17.44;69.38
73106;BME280;61559;50.476;15.588;2023-07-20T06:42:20;97224.23;;;17.51;69.50
73106;BME280;61559;50.476;15.588;2023-07-20T06:44:51;97226.02;;;17.59;69.28
73106;BME280;61559;50.476;15.588;2023-07-20T06:47:22;97227.30;;;17.62;68.07
73106;BME280;61559;50.476;15.588;2023-07-20T06:49:53;97237.42;;;17.62;67.73
73106;BME280;61559;50.476;15.588;2023-07-20T06:52:25;97232.38;;;17.63;67.73
73106;BME280;61559;50.476;15.588;2023-07-20T06:54:56;97236.79;;;17.69;67.49
73106;BME280;61559;50.476;15.588;2023-07-20T06:57:32;97241.10;;;17.77;67.22
73106;BME280;61559;50.476;15.588;2023-07-20T07:00:04;97238.54;;;17.82;67.17
73106;BME280;61559;50.476;15.588;2023-07-20T07:02:36;97236.69;;;17.92;67.17
73106;BME280;61559;50.476;15.588;2023-07-20T07:05:10;97234.97;;;18.01;67.39
73106;BME280;61559;50.476;15.588;2023-07-20T07:07:45;97242.03;;;18.09;66.60
73106;BME280;61559;50.476;15.588;2023-07-20T07:10:17;97245.15;;;18.07;65.98
73106;BME280;61559;50.476;15.588;2023-07-20T07:12:48;97245.58;;;18.05;66.02
73106;BME280;61559;50.476;15.588;2023-07-20T07:15:19;97245.30;;;18.08;66.30
73106;BME280;61559;50.476;15.588;2023-07-20T07:17:52;97248.55;;;18.15;65.41
73106;BME280;61559;50.476;15.588;2023-07-20T07:20:23;97238.89;;;18.21;65.58
73106;BME280;61559;50.476;15.588;2023-07-20T07:22:54;97235.78;;;18.23;64.87
73106;BME280;61559;50.476;15.588;2023-07-20T07:25:27;97235.39;;;18.18;63.55
73106;BME280;61559;50.476;15.588;2023-07-20T07:27:58;97239.57;;;18.08;63.23
73106;BME280;61559;50.476;15.588;2023-07-20T07:30:29;97238.34;;;18.05;63.75
73106;BME280;61559;50.476;15.588;2023-07-20T07:33:03;97237.98;;;18.15;63.94
73106;BME280;61559;50.476;15.588;2023-07-20T07:35:34;97234.17;;;18.27;63.56
73106;BME280;61559;50.476;15.588;2023-07-20T07:38:06;97242.28;;;18.38;63.26
73106;BME280;61559;50.476;15.588;2023-07-20T07:40:57;97243.83;;;18.46;62.33
73106;BME280;61559;50.476;15.588;2023-07-20T07:43:28;97242.15;;;18.52;62.17
73106;BME280;61559;50.476;15.588;2023-07-20T07:45:59;97243.19;;;18.61;62.47
73106;BME280;61559;50.476;15.588;2023-07-20T07:48:31;97240.42;;;18.73;61.74
73106;BME280;61559;50.476;15.588;2023-07-20T07:51:02;97246.95;;;18.81;60.82
73106;BME280;61559;50.476;15.588;2023-07-20T07:53:34;97246.09;;;18.87;59.92
73106;BME280;61559;50.476;15.588;2023-07-20T07:56:08;97243.89;;;18.97;60.68
73106;BME280;61559;50.476;15.588;2023-07-20T07:58:39;97241.47;;;19.12;60.45
73106;BME280;61559;50.476;15.588;2023-07-20T08:01:10;97245.13;;;19.15;58.91
73106;BME280;61559;50.476;15.588;2023-07-20T08:03:41;97247.36;;;19.12;57.22
73106;BME280;61559;50.476;15.588;2023-07-20T08:06:12;97254.80;;;19.07;56.43
73106;BME280;61559;50.476;15.588;2023-07-20T08:08:43;97252.21;;;19.06;56.74
73106;BME280;61559;50.476;15.588;2023-07-20T08:11:15;97257.35;;;19.10;56.32
73106;BME280;61559;50.476;15.588;2023-07-20T08:13:47;97257.49;;;19.11;56.27
73106;BME280;61559;50.476;15.588;2023-07-20T08:16:18;97255.86;;;19.13;56.70
73106;BME280;61559;50.476;15.588;2023-07-20T08:18:50;97257.30;;;19.19;57.07
73106;BME280;61559;50.476;15.588;2023-07-20T08:21:21;97261.52;;;19.28;56.85
73106;BME280;61559;50.476;15.588;2023-07-20T08:23:53;97261.69;;;19.35;56.93
73106;BME280;61559;50.476;15.588;2023-07-20T08:26:24;97263.56;;;19.41;56.37
73106;BME280;61559;50.476;15.588;2023-07-20T08:28:57;97263.50;;;19.43;56.01
73106;BME280;61559;50.476;15.588;2023-07-20T08:31:28;97255.98;;;19.50;56.68
73106;BME280;61559;50.476;15.588;2023-07-20T08:33:58;97252.07;;;19.62;56.28
73106;BME280;61559;50.476;15.588;2023-07-20T08:36:34;97251.87;;;19.73;55.28
73106;BME280;61559;50.476;15.588;2023-07-20T08:39:05;97255.39;;;19.80;53.76
73106;BME280;61559;50.476;15.588;2023-07-20T08:41:37;97262.77;;;19.80;53.56
73106;BME280;61559;50.476;15.588;2023-07-20T08:44:09;97258.89;;;19.89;55.00
73106;BME280;61559;50.476;15.588;2023-07-20T08:46:41;97256.94;;;20.06;55.00
73106;BME280;61559;50.476;15.588;2023-07-20T08:49:14;97256.48;;;20.20;54.37
73106;BME280;61559;50.476;15.588;2023-07-20T08:51:47;97259.03;;;20.24;54.14
73106;BME280;61559;50.476;15.588;2023-07-20T08:54:19;97268.44;;;20.26;54.36
73106;BME280;61559;50.476;15.588;2023-07-20T08:56:52;97270.69;;;20.21;53.20
73106;BME280;61559;50.476;15.588;2023-07-20T08:59:25;97279.73;;;20.19;52.93
73106;BME280;61559;50.476;15.588;2023-07-20T09:01:59;97277.70;;;20.14;52.58
73106;BME280;61559;50.476;15.588;2023-07-20T09:04:31;97272.33;;;20.12;53.03
73106;BME280;61559;50.476;15.588;2023-07-20T09:07:03;97265.52;;;20.14;53.29
73106;BME280;61559;50.476;15.588;2023-07-20T09:09:42;97258.36;;;20.16;53.69
73106;BME280;61559;50.476;15.588;2023-07-20T09:12:17;97252.08;;;20.19;53.28
73106;BME280;61559;50.476;15.588;2023-07-20T09:14:48;97246.48;;;20.22;53.26
73106;BME280;61559;50.476;15.588;2023-07-20T09:17:19;97243.55;;;20.30;53.90
73106;BME280;61559;50.476;15.588;2023-07-20T09:19:52;97244.52;;;20.47;53.94
73106;BME280;61559;50.476;15.588;2023-07-20T09:22:30;97242.55;;;20.64;53.58
73106;BME280;61559;50.476;15.588;2023-07-20T09:25:02;97249.11;;;20.73;51.86
73106;BME280;61559;50.476;15.588;2023-07-20T09:27:38;97241.27;;;20.72;51.91
73106;BME280;61559;50.476;15.588;2023-07-20T09:30:10;97241.17;;;20.74;51.73
73106;BME280;61559;50.476;15.588;2023-07-20T09:32:48;97245.45;;;20.70;51.60
73106;BME280;61559;50.476;15.588;2023-07-20T09:35:24;97243.65;;;20.72;51.90
73106;BME280;61559;50.476;15.588;2023-07-20T09:38:02;97244.17;;;20.75;51.39
73106;BME280;61559;50.476;15.588;2023-07-20T09:40:40;97240.23;;;20.81;50.48
73106;BME280;61559;50.476;15.588;2023-07-20T09:43:17;97232.05;;;20.91;50.29
73106;BME280;61559;50.476;15.588;2023-07-20T09:45:51;97231.85;;;21.03;49.74
73106;BME280;61559;50.476;15.588;2023-07-20T09:48:29;97231.30;;;21.06;49.94
73106;BME280;61559;50.476;15.588;2023-07-20T09:51:03;97235.89;;;21.02;49.67
73106;BME280;61559;50.476;15.588;2023-07-20T09:53:38;97243.20;;;20.90;49.63
73106;BME280;61559;50.476;15.588;2023-07-20T09:56:09;97265.99;;;20.75;49.76
73106;BME280;61559;50.476;15.588;2023-07-20T09:58:47;97315.23;;;20.43;51.58
73106;BME280;61559;50.476;15.588;2023-07-20T10:01:21;97343.28;;;19.67;54.50
73106;BME280;61559;50.476;15.588;2023-07-20T10:03:55;97349.55;;;18.65;57.73
73106;BME280;61559;50.476;15.588;2023-07-20T10:06:33;97351.78;;;17.85;60.40
73106;BME280;61559;50.476;15.588;2023-07-20T10:09:07;97348.14;;;17.29;62.36
73106;BME280;61559;50.476;15.588;2023-07-20T10:11:42;97339.30;;;16.89;64.04
73106;BME280;61559;50.476;15.588;2023-07-20T10:14:19;97342.34;;;16.63;65.50
73106;BME280;61559;50.476;15.588;2023-07-20T10:16:54;97335.39;;;16.41;66.51
73106;BME280;61559;50.476;15.588;2023-07-20T10:19:39;97329.08;;;16.31;67.80
73106;BME280;61559;50.476;15.588;2023-07-20T10:22:26;97331.96;;;16.26;69.33
73106;BME280;61559;50.476;15.588;2023-07-20T10:24:59;97334.64;;;16.26;70.39
73106;BME280;61559;50.476;15.588;2023-07-20T10:27:32;97337.71;;;16.32;71.54
73106;BME280;61559;50.476;15.588;2023-07-20T10:30:05;97335.08;;;16.46;72.35
73106;BME280;61559;50.476;15.588;2023-07-20T10:32:36;97335.73;;;16.64;73.61
73106;BME280;61559;50.476;15.588;2023-07-20T10:35:15;97338.61;;;16.77;73.54
73106;BME280;61559;50.476;15.588;2023-07-20T10:37:54;97336.02;;;16.87;72.87
73106;BME280;61559;50.476;15.588;2023-07-20T10:40:37;97332.77;;;16.89;72.14
73106;BME280;61559;50.476;15.588;2023-07-20T10:43:09;97332.89;;;16.92;71.58
73106;BME280;61559;50.476;15.588;2023-07-20T10:45:50;97336.47;;;17.05;71.46
73106;BME280;61559;50.476;15.588;2023-07-20T10:48:23;97334.70;;;17.23;71.97
73106;BME280;61559;50.476;15.588;2023-07-20T10:51:14;97329.94;;;17.38;70.57
73106;BME280;61559;50.476;15.588;2023-07-20T10:53:51;97327.11;;;17.50;69.61
73106;BME280;61559;50.476;15.588;2023-07-20T10:56:25;97324.36;;;17.58;69.01
73106;BME280;61559;50.476;15.588;2023-07-20T10:58:59;97320.87;;;17.69;70.22
73106;BME280;61559;50.476;15.588;2023-07-20T11:01:35;97317.73;;;17.90;69.63
73106;BME280;61559;50.476;15.588;2023-07-20T11:04:09;97312.15;;;18.16;68.94
73106;BME280;61559;50.476;15.588;2023-07-20T11:06:44;97302.48;;;18.38;66.71
73106;BME280;61559;50.476;15.588;2023-07-20T11:09:16;97302.46;;;18.56;65.99
73106;BME280;61559;50.476;15.588;2023-07-20T11:11:49;97300.80;;;18.71;64.85
73106;BME280;61559;50.476;15.588;2023-07-20T11:14:24;97305.90;;;18.79;64.14
73106;BME280;61559;50.476;15.588;2023-07-20T11:16:56;97305.34;;;18.83;64.00
73106;BME280;61559;50.476;15.588;2023-07-20T11:19:42;97299.63;;;18.88;63.06
73106;BME280;61559;50.476;15.588;2023-07-20T11:22:17;97299.07;;;18.94;62.86
73106;BME280;61559;50.476;15.588;2023-07-20T11:24:48;97295.19;;;18.96;61.43
73106;BME280;61559;50.476;15.588;2023-07-20T11:27:20;97298.35;;;19.01;61.76
73106;BME280;61559;50.476;15.588;2023-07-20T11:29:52;97297.85;;;19.06;60.08
73106;BME280;61559;50.476;15.588;2023-07-20T11:32:23;97294.05;;;19.06;60.51
73106;BME280;61559;50.476;15.588;2023-07-20T11:34:55;97295.98;;;19.11;60.76
73106;BME280;61559;50.476;15.588;2023-07-20T11:37:26;97290.77;;;19.14;61.24
73106;BME280;61559;50.476;15.588;2023-07-20T11:39:59;97287.96;;;19.19;60.87
73106;BME280;61559;50.476;15.588;2023-07-20T11:42:31;97292.63;;;19.26;59.64
73106;BME280;61559;50.476;15.588;2023-07-20T11:45:07;97280.33;;;19.31;60.06
73106;BME280;61559;50.476;15.588;2023-07-20T11:47:42;97280.80;;;19.41;59.84
73106;BME280;61559;50.476;15.588;2023-07-20T11:50:13;97269.13;;;19.51;59.55
73106;BME280;61559;50.476;15.588;2023-07-20T11:52:46;97266.19;;;19.67;59.47
73106;BME280;61559;50.476;15.588;2023-07-20T11:55:17;97266.44;;;19.80;58.17
73106;BME280;61559;50.476;15.588;2023-07-20T11:58:03;97266.59;;;19.86;57.64
73106;BME280;61559;50.476;15.588;2023-07-20T12:00:36;97261.14;;;19.88;56.66
73106;BME280;61559;50.476;15.588;2023-07-20T12:03:09;97257.70;;;19.91;57.48
73106;BME280;61559;50.476;15.588;2023-07-20T12:05:41;97258.88;;;19.97;57.06
73106;BME280;61559;50.476;15.588;2023-07-20T12:08:30;97254.10;;;20.07;57.24
73106;BME280;61559;50.476;15.588;2023-07-20T12:11:01;97251.63;;;20.23;56.82
73106;BME280;61559;50.476;15.588;2023-07-20T12:13:40;97250.65;;;20.37;55.60
73106;BME280;61559;50.476;15.588;2023-07-20T12:16:14;97248.95;;;20.46;54.70
73106;BME280;61559;50.476;15.588;2023-07-20T12:18:46;97248.18;;;20.51;55.48
73106;BME280;61559;50.476;15.588;2023-07-20T12:21:20;97246.67;;;20.60;55.68
73106;BME280;61559;50.476;15.588;2023-07-20T12:23:51;97262.27;;;20.71;53.39
73106;BME280;61559;50.476;15.588;2023-07-20T12:26:22;97252.77;;;20.75;52.55
73106;BME280;61559;50.476;15.588;2023-07-20T12:28:55;97251.05;;;20.75;51.67
73106;BME280;61559;50.476;15.588;2023-07-20T12:31:27;97244.73;;;20.80;51.72
73106;BME280;61559;50.476;15.588;2023-07-20T12:33:59;97245.23;;;20.84;52.09
73106;BME280;61559;50.476;15.588;2023-07-20T12:36:31;97246.48;;;20.93;51.32
73106;BME280;61559;50.476;15.588;2023-07-20T12:39:02;97245.03;;;21.00;50.25
73106;BME280;61559;50.476;15.588;2023-07-20T12:41:34;97248.16;;;21.00;50.46
73106;BME280;61559;50.476;15.588;2023-07-20T12:44:06;97243.52;;;21.04;50.19
73106;BME280;61559;50.476;15.588;2023-07-20T12:46:37;97240.36;;;21.08;49.57
73106;BME280;61559;50.476;15.588;2023-07-20T12:49:08;97245.12;;;21.13;49.19
73106;BME280;61559;50.476;15.588;2023-07-20T12:51:39;97247.96;;;21.15;47.27
73106;BME280;61559;50.476;15.588;2023-07-20T12:54:11;97236.35;;;21.17;48.28
73106;BME280;61559;50.476;15.588;2023-07-20T12:56:43;97231.02;;;21.23;48.47
73106;BME280;61559;50.476;15.588;2023-07-20T12:59:16;97221.10;;;21.34;49.05
73106;BME280;61559;50.476;15.588;2023-07-20T13:01:48;97225.55;;;21.52;48.97
73106;BME280;61559;50.476;15.588;2023-07-20T13:04:19;97219.34;;;21.70;48.09
73106;BME280;61559;50.476;15.588;2023-07-20T13:06:50;97228.99;;;21.82;46.91
73106;BME280;61559;50.476;15.588;2023-07-20T13:09:21;97232.06;;;21.81;47.27
73106;BME280;61559;50.476;15.588;2023-07-20T13:11:53;97234.67;;;21.83;47.02
73106;BME280;61559;50.476;15.588;2023-07-20T13:14:24;97225.95;;;21.88;47.44
73106;BME280;61559;50.476;15.588;2023-07-20T13:16:55;97222.44;;;21.96;46.11
73106;BME280;61559;50.476;15.588;2023-07-20T13:19:26;97219.92;;;22.04;45.62